createdAt,value
2018-09-10T00:01:06.673Z,99854.07
2018-09-10T00:03:35.212Z,99856.56
2018-09-10T00:06:03.812Z,99853.20
2018-09-10T00:08:32.357Z,99865.22
2018-09-10T00:11:00.941Z,99861.22
2018-09-10T00:13:29.486Z,99864.11
2018-09-10T00:15:58.079Z,99865.91
2018-09-10T00:18:26.641Z,99873.15
2018-09-10T00:20:55.244Z,99872.88
2018-09-10T00:23:23.825Z,99873.52
2018-09-10T00:25:52.417Z,99872.00
2018-09-10T00:28:21.234Z,99870.13
2018-09-10T00:30:49.771Z,99873.59
2018-09-10T00:33:20.131Z,99871.44
2018-09-10T00:35:48.865Z,99882.29
2018-09-10T00:38:17.446Z,99876.81
2018-09-10T00:40:46.000Z,99880.20
2018-09-10T00:43:14.583Z,99875.60
2018-09-10T00:45:45.627Z,99876.64
2018-09-10T00:48:15.380Z,99870.91
2018-09-10T00:50:44.273Z,99882.64
2018-09-10T00:53:12.852Z,99877.39
2018-09-10T00:55:41.437Z,99873.53
2018-09-10T00:58:10.052Z,99872.59
2018-09-10T01:00:38.621Z,99868.34
2018-09-10T01:03:07.241Z,99869.67
2018-09-10T01:05:35.785Z,99863.73
2018-09-10T01:08:04.366Z,99868.71
2018-09-10T01:10:32.914Z,99868.08
2018-09-10T01:13:01.513Z,99871.36
2018-09-10T01:15:30.052Z,99869.48
2018-09-10T01:17:58.639Z,99876.16
2018-09-10T01:20:27.217Z,99875.20
2018-09-10T01:22:55.789Z,99872.95
2018-09-10T01:25:24.381Z,99868.32
2018-09-10T01:27:53.188Z,99877.31
2018-09-10T01:30:21.703Z,99879.59
2018-09-10T01:32:50.267Z,99872.92
2018-09-10T01:35:18.785Z,99871.22
2018-09-10T01:37:47.368Z,99869.51
2018-09-10T01:40:15.893Z,99861.47
2018-09-10T01:42:44.429Z,99873.94
2018-09-10T01:45:12.941Z,99868.10
2018-09-10T01:47:41.517Z,99875.16
2018-09-10T01:50:10.036Z,99872.88
2018-09-10T01:52:38.610Z,99877.22
2018-09-10T01:55:07.141Z,99877.17
2018-09-10T01:57:35.713Z,99880.04
2018-09-10T02:00:04.457Z,99876.61
2018-09-10T02:02:33.013Z,99884.22
2018-09-10T02:05:01.537Z,99887.76
2018-09-10T02:07:30.088Z,99890.45
2018-09-10T02:09:58.620Z,99883.98
2018-09-10T02:12:27.176Z,99881.94
2018-09-10T02:14:56.550Z,99892.42
2018-09-10T02:17:25.795Z,99888.30
2018-09-10T02:19:54.672Z,99883.62
2018-09-10T02:22:23.198Z,99878.31
2018-09-10T02:24:51.864Z,99881.44
2018-09-10T02:27:20.414Z,99883.21
2018-09-10T02:29:48.981Z,99880.09
2018-09-10T02:32:17.518Z,99872.88
2018-09-10T02:34:46.100Z,99878.63
2018-09-10T02:37:14.611Z,99875.57
2018-09-10T02:39:43.163Z,99877.63
2018-09-10T02:42:11.682Z,99879.86
2018-09-10T02:44:40.265Z,99881.50
2018-09-10T02:47:08.821Z,99880.20
2018-09-10T02:49:37.389Z,99873.75
2018-09-10T02:52:05.996Z,99862.84
2018-09-10T02:54:34.580Z,99862.02
2018-09-10T02:57:03.295Z,99857.83
2018-09-10T02:59:31.867Z,99871.71
2018-09-10T03:02:00.398Z,99875.99
2018-09-10T03:04:28.992Z,99871.86
2018-09-10T03:06:57.516Z,99870.40
2018-09-10T03:09:26.069Z,99870.56
2018-09-10T03:11:54.577Z,99861.45
2018-09-10T03:14:23.133Z,99859.80
2018-09-10T03:16:51.658Z,99864.86
2018-09-10T03:19:20.218Z,99857.59
2018-09-10T03:21:48.774Z,99866.93
2018-09-10T03:24:17.408Z,99869.89
2018-09-10T03:26:45.929Z,99867.77
2018-09-10T03:29:14.490Z,99859.10
2018-09-10T03:31:43.009Z,99852.28
2018-09-10T03:34:11.555Z,99851.41
2018-09-10T03:36:40.072Z,99854.52
2018-09-10T03:39:09.848Z,99852.20
2018-09-10T03:41:38.377Z,99849.91
2018-09-10T03:44:06.960Z,99849.06
2018-09-10T03:46:35.508Z,99847.18
2018-09-10T03:49:04.088Z,99843.06
2018-09-10T03:51:32.623Z,99846.52
2018-09-10T03:54:07.559Z,99856.86
2018-09-10T03:56:36.124Z,99861.81
2018-09-10T03:59:04.693Z,99855.95
2018-09-10T04:01:33.774Z,99859.45
2018-09-10T04:04:02.331Z,99857.92
2018-09-10T04:06:30.852Z,99869.94
2018-09-10T04:08:59.397Z,99856.94
2018-09-10T04:11:28.017Z,99860.33
2018-09-10T04:13:56.537Z,99859.05
2018-09-10T04:16:25.185Z,99857.02
2018-09-10T04:18:54.043Z,99849.55
2018-09-10T04:21:22.673Z,99854.78
2018-09-10T04:23:51.217Z,99863.55
2018-09-10T04:26:19.781Z,99859.44
2018-09-10T04:28:48.305Z,99865.41
2018-09-10T04:31:16.853Z,99859.91
2018-09-10T04:33:45.389Z,99866.03
2018-09-10T04:36:17.800Z,99871.20
2018-09-10T04:38:46.601Z,99863.72
2018-09-10T04:41:15.168Z,99866.66
2018-09-10T04:43:43.712Z,99870.61
2018-09-10T04:46:12.306Z,99866.42
2018-09-10T04:48:40.829Z,99858.42
2018-09-10T04:51:12.914Z,99871.36
2018-09-10T04:53:41.733Z,99880.23
2018-09-10T04:56:10.288Z,99881.43
2018-09-10T04:58:39.566Z,99889.83
2018-09-10T05:01:08.944Z,99887.88
2018-09-10T05:03:37.505Z,99889.03
2018-09-10T05:06:07.141Z,99896.55
2018-09-10T05:08:35.671Z,99900.50
2018-09-10T05:11:04.236Z,99902.45
2018-09-10T05:13:32.898Z,99903.47
2018-09-10T05:16:01.786Z,99916.69
2018-09-10T05:18:30.596Z,99923.70
2018-09-10T05:21:00.388Z,99922.23
2018-09-10T05:23:28.930Z,99924.90
2018-09-10T05:25:57.481Z,99918.28
2018-09-10T05:28:26.006Z,99920.82
2018-09-10T05:30:54.576Z,99926.37
2018-09-10T05:33:23.302Z,99935.28
2018-09-10T05:35:51.897Z,99942.98
2018-09-10T05:38:20.434Z,99946.98
2018-09-10T05:40:48.987Z,99947.77
2018-09-10T05:43:17.505Z,99953.17
2018-09-10T05:45:46.118Z,99956.11
2018-09-10T05:48:14.632Z,99957.28
2018-09-10T05:50:43.200Z,99954.20
2018-09-10T05:53:11.805Z,99948.41
2018-09-10T05:55:40.425Z,99953.17
2018-09-10T05:58:08.904Z,99954.42
2018-09-10T06:00:37.926Z,99955.20
2018-09-10T06:03:06.521Z,99951.16
2018-09-10T06:05:35.057Z,99961.83
2018-09-10T06:08:03.644Z,99951.09
2018-09-10T06:10:32.234Z,99948.45
2018-09-10T06:13:00.784Z,99957.45
2018-09-10T06:15:29.319Z,99960.70
2018-09-10T06:17:57.883Z,99948.42
2018-09-10T06:20:26.458Z,99960.95
2018-09-10T06:22:55.028Z,99960.76
2018-09-10T06:25:23.564Z,99959.06
2018-09-10T06:27:52.109Z,99961.33
2018-09-10T06:30:20.667Z,99965.02
2018-09-10T06:32:49.269Z,99959.52
2018-09-10T06:35:17.795Z,99951.61
2018-09-10T06:37:46.355Z,99955.95
2018-09-10T06:40:15.219Z,99956.52
2018-09-10T06:42:44.092Z,99952.45
2018-09-10T06:45:12.625Z,99953.16
2018-09-10T06:47:41.243Z,99952.30
2018-09-10T06:50:09.769Z,99950.78
2018-09-10T06:52:38.426Z,99959.95
2018-09-10T06:55:07.110Z,99958.82
2018-09-10T06:57:35.673Z,99962.73
2018-09-10T07:00:04.257Z,99970.27
2018-09-10T07:02:33.328Z,99974.38
2018-09-10T07:05:01.870Z,99966.64
2018-09-10T07:07:30.444Z,99972.34
2018-09-10T07:09:59.231Z,99977.06
2018-09-10T07:12:27.977Z,99971.95
2018-09-10T07:14:56.647Z,99985.19
2018-09-10T07:17:25.317Z,99980.11
2018-09-10T07:19:54.408Z,99971.88
2018-09-10T07:22:23.380Z,99976.30
2018-09-10T07:24:52.098Z,99977.02
2018-09-10T07:27:20.909Z,99972.84
2018-09-10T07:29:49.554Z,99977.48
2018-09-10T07:32:18.208Z,99972.44
2018-09-10T07:34:46.954Z,99972.77
2018-09-10T07:37:15.724Z,99982.69
2018-09-10T07:39:44.858Z,99987.16
2018-09-10T07:42:13.513Z,99987.69
2018-09-10T07:44:42.149Z,99993.66
2018-09-10T07:47:11.016Z,99987.28
2018-09-10T07:49:39.730Z,99989.05
2018-09-10T07:52:08.444Z,99989.45
2018-09-10T07:54:37.179Z,99986.16
2018-09-10T07:57:06.129Z,99984.99
2018-09-10T07:59:34.705Z,99982.72
2018-09-10T08:02:03.480Z,99984.47
2018-09-10T08:04:32.049Z,99987.38
2018-09-10T08:07:00.588Z,99971.81
2018-09-10T08:09:29.181Z,99983.16
2018-09-10T08:11:57.734Z,99984.72
2018-09-10T08:14:26.302Z,99988.46
2018-09-10T08:16:54.867Z,99990.88
2018-09-10T08:19:23.465Z,99995.67
2018-09-10T08:21:52.022Z,99989.97
2018-09-10T08:24:20.740Z,99993.59
2018-09-10T08:26:49.197Z,99995.05
2018-09-10T08:29:17.770Z,99998.14
2018-09-10T08:31:46.297Z,99995.73
2018-09-10T08:34:14.887Z,99991.22
2018-09-10T08:36:43.450Z,99993.20
2018-09-10T08:39:12.081Z,99998.48
2018-09-10T08:41:40.627Z,99997.73
2018-09-10T08:44:09.225Z,100001.14
2018-09-10T08:46:37.772Z,100012.53
2018-09-10T08:49:06.426Z,100017.22
2018-09-10T08:51:34.973Z,100012.61
2018-09-10T08:54:03.655Z,100014.22
2018-09-10T08:56:32.145Z,100015.56
2018-09-10T08:59:00.774Z,100017.41
2018-09-10T09:01:29.757Z,100014.44
2018-09-10T09:03:58.941Z,100012.83
2018-09-10T09:06:27.575Z,100014.79
2018-09-10T09:08:56.080Z,100013.42
2018-09-10T09:11:24.637Z,100012.27
2018-09-10T09:13:53.250Z,100016.57
2018-09-10T09:16:21.796Z,100012.52
2018-09-10T09:18:50.453Z,100003.69
2018-09-10T09:21:18.985Z,100006.41
2018-09-10T09:23:47.558Z,100002.06
2018-09-10T09:26:16.092Z,100006.33
2018-09-10T09:28:44.663Z,100009.55
2018-09-10T09:31:13.212Z,100011.16
2018-09-10T09:33:41.796Z,100016.41
2018-09-10T09:36:15.574Z,100016.69
2018-09-10T09:38:49.184Z,100013.95
2018-09-10T09:41:22.898Z,100013.73
2018-09-10T09:43:56.694Z,100011.91
2018-09-10T09:46:25.237Z,100014.61
2018-09-10T09:48:53.946Z,100012.52
2018-09-10T09:51:22.498Z,100009.31
2018-09-10T09:53:51.073Z,100011.09
2018-09-10T09:56:19.617Z,100015.65
2018-09-10T09:58:48.153Z,100014.42
2018-09-10T10:01:22.141Z,100015.75
2018-09-10T10:03:55.265Z,100003.45
2018-09-10T10:06:24.979Z,100001.52
2018-09-10T10:08:53.754Z,99995.46
2018-09-10T10:11:22.424Z,99993.47
2018-09-10T10:13:51.164Z,100005.81
2018-09-10T10:16:19.909Z,99999.99
2018-09-10T10:18:48.453Z,99992.34
2018-09-10T10:21:17.031Z,99996.41
2018-09-10T10:23:45.566Z,99995.70
2018-09-10T10:26:14.136Z,99990.05
2018-09-10T10:28:42.676Z,99993.11
2018-09-10T10:31:11.313Z,99987.70
2018-09-10T10:33:39.870Z,99989.86
2018-09-10T10:36:08.464Z,99989.41
2018-09-10T10:38:37.017Z,99994.91
2018-09-10T10:41:05.669Z,99993.11
2018-09-10T10:43:34.260Z,99989.88
2018-09-10T10:46:02.821Z,99987.83
2018-09-10T10:48:31.393Z,99977.92
2018-09-10T10:50:59.973Z,99979.86
2018-09-10T10:53:28.549Z,99972.50
2018-09-10T10:55:57.306Z,99971.57
2018-09-10T10:58:25.954Z,99976.92
2018-09-10T11:00:56.155Z,99972.47
2018-09-10T11:03:24.749Z,99972.72
2018-09-10T11:05:54.884Z,99974.52
2018-09-10T11:08:23.489Z,99968.49
2018-09-10T11:10:52.057Z,99971.03
2018-09-10T11:13:20.580Z,99966.95
2018-09-10T11:15:49.301Z,99966.31
2018-09-10T11:18:17.838Z,99971.89
2018-09-10T11:20:47.122Z,99971.64
2018-09-10T11:23:15.651Z,99968.27
2018-09-10T11:25:44.216Z,99965.77
2018-09-10T11:28:12.801Z,99963.16
2018-09-10T11:30:41.374Z,99962.64
2018-09-10T11:33:09.949Z,99962.79
2018-09-10T11:35:38.529Z,99953.77
2018-09-10T11:38:07.103Z,99964.97
2018-09-10T11:40:35.657Z,99953.91
2018-09-10T11:43:04.205Z,99954.08
2018-09-10T11:45:32.775Z,99961.23
2018-09-10T11:48:01.349Z,99951.03
2018-09-10T11:50:29.921Z,99940.05
2018-09-10T11:52:58.444Z,99951.56
2018-09-10T11:55:27.042Z,99942.80
2018-09-10T11:57:57.930Z,99944.41
2018-09-10T12:00:26.552Z,99934.09
2018-09-10T12:02:55.117Z,99937.77
2018-09-10T12:05:23.654Z,99930.28
2018-09-10T12:07:52.359Z,99942.46
2018-09-10T12:10:20.877Z,99934.05
2018-09-10T12:12:49.424Z,99924.91
2018-09-10T12:15:17.953Z,99930.23
2018-09-10T12:17:46.593Z,99925.16
2018-09-10T12:20:15.134Z,99927.59
2018-09-10T12:22:43.699Z,99926.39
2018-09-10T12:25:12.544Z,99928.14
2018-09-10T12:27:41.364Z,99923.27
2018-09-10T12:30:10.305Z,99935.93
2018-09-10T12:32:40.058Z,99948.41
2018-09-10T12:35:09.911Z,99945.37
2018-09-10T12:37:38.671Z,99943.27
2018-09-10T12:40:08.511Z,99944.08
2018-09-10T12:42:37.176Z,99948.31
2018-09-10T12:45:05.825Z,99939.29
2018-09-10T12:47:34.389Z,99945.45
2018-09-10T12:50:02.957Z,99945.60
2018-09-10T12:52:31.611Z,99938.13
2018-09-10T12:55:00.142Z,99933.34
2018-09-10T12:57:28.687Z,99941.81
2018-09-10T12:59:57.649Z,99934.48
2018-09-10T13:02:27.064Z,99936.52
2018-09-10T13:04:55.675Z,99929.86
2018-09-10T13:07:24.250Z,99922.94
2018-09-10T13:09:52.772Z,99924.67
2018-09-10T13:12:21.332Z,99924.85
2018-09-10T13:14:49.873Z,99922.94
2018-09-10T13:17:18.493Z,99914.82
2018-09-10T13:19:53.501Z,99917.39
2018-09-10T13:22:22.082Z,99918.32
2018-09-10T13:24:50.620Z,99909.98
2018-09-10T13:27:19.181Z,99907.86
2018-09-10T13:29:47.732Z,99901.48
2018-09-10T13:32:16.320Z,99897.43
2018-09-10T13:34:44.944Z,99897.47
2018-09-10T13:37:13.646Z,99903.27
2018-09-10T13:39:42.290Z,99908.64
2018-09-10T13:42:11.107Z,99902.72
2018-09-10T13:44:39.742Z,99895.05
2018-09-10T13:47:08.354Z,99900.38
2018-09-10T13:49:38.694Z,99901.08
2018-09-10T13:52:07.388Z,99894.98
2018-09-10T13:54:36.010Z,99901.81
2018-09-10T13:57:04.588Z,99899.30
2018-09-10T13:59:33.242Z,99907.09
2018-09-10T14:02:07.223Z,99894.74
2018-09-10T14:04:44.468Z,99882.71
2018-09-10T14:07:13.382Z,99887.16
2018-09-10T14:09:41.994Z,99891.86
2018-09-10T14:12:10.587Z,99893.30
2018-09-10T14:14:39.220Z,99887.34
2018-09-10T14:17:07.797Z,99887.43
2018-09-10T14:19:36.386Z,99904.70
2018-09-10T14:22:04.943Z,99887.61
2018-09-10T14:24:33.508Z,99903.41
2018-09-10T14:27:02.093Z,99900.01
2018-09-10T14:29:30.652Z,99895.14
2018-09-10T14:31:59.233Z,99904.89
2018-09-10T14:34:28.658Z,99885.59
2018-09-10T14:36:57.228Z,99883.41
2018-09-10T14:39:25.792Z,99889.70
2018-09-10T14:41:54.533Z,99880.91
2018-09-10T14:44:24.526Z,99888.89
2018-09-10T14:46:56.129Z,99904.38
2018-09-10T14:49:27.036Z,99899.61
2018-09-10T14:51:57.757Z,99899.10
2018-09-10T14:54:27.923Z,99898.62
2018-09-10T14:56:57.411Z,99905.83
2018-09-10T14:59:27.754Z,99903.84
2018-09-10T15:01:57.720Z,99904.31
2018-09-10T15:04:29.232Z,99908.95
2018-09-10T15:07:02.456Z,99901.16
2018-09-10T15:09:31.785Z,99909.09
2018-09-10T15:12:04.685Z,99913.41
2018-09-10T15:14:37.819Z,99911.58
2018-09-10T15:17:08.877Z,99924.28
2018-09-10T15:19:42.025Z,99912.40
2018-09-10T15:22:13.330Z,99910.55
2018-09-10T15:24:46.104Z,99903.66
2018-09-10T15:27:19.206Z,99900.91
2018-09-10T15:29:48.476Z,99897.30
2018-09-10T15:32:18.649Z,99905.09
2018-09-10T15:34:49.314Z,99896.52
2018-09-10T15:37:19.898Z,99893.34
2018-09-10T15:39:51.040Z,99901.01
2018-09-10T15:42:20.235Z,99895.25
2018-09-10T15:44:48.873Z,99897.09
2018-09-10T15:47:22.092Z,99907.84
2018-09-10T15:49:55.028Z,99887.98
2018-09-10T15:52:28.260Z,99892.75
2018-09-10T15:54:58.240Z,99893.33
2018-09-10T15:57:29.304Z,99904.36
2018-09-10T16:00:00.764Z,99905.83
2018-09-10T16:02:30.822Z,99905.25
2018-09-10T16:05:01.669Z,99907.36
2018-09-10T16:07:33.999Z,99921.55
2018-09-10T16:10:03.389Z,99911.95
2018-09-10T16:12:31.927Z,99913.59
2018-09-10T16:15:00.501Z,99913.75
2018-09-10T16:17:29.031Z,99916.20
2018-09-10T16:19:57.648Z,99925.91
2018-09-10T16:22:26.179Z,99925.29
2018-09-10T16:24:54.759Z,99922.96
2018-09-10T16:27:23.339Z,99931.61
2018-09-10T16:29:51.877Z,99924.20
2018-09-10T16:32:20.422Z,99925.02
2018-09-10T16:34:50.785Z,99912.02
2018-09-10T16:37:19.307Z,99916.33
2018-09-10T16:39:47.888Z,99920.62
2018-09-10T16:42:16.749Z,99921.45
2018-09-10T16:44:45.303Z,99926.22
2018-09-10T16:47:13.875Z,99923.24
2018-09-10T16:49:42.406Z,99924.25
2018-09-10T16:52:11.540Z,99926.00
2018-09-10T16:54:41.073Z,99926.87
2018-09-10T16:57:09.820Z,99921.84
2018-09-10T16:59:39.808Z,99925.41
2018-09-10T17:02:09.122Z,99916.95
2018-09-10T17:04:38.011Z,99923.29
2018-09-10T17:07:06.719Z,99916.98
2018-09-10T17:09:35.253Z,99923.39
2018-09-10T17:12:03.854Z,99925.25
2018-09-10T17:14:35.659Z,99917.91
2018-09-10T17:17:05.609Z,99924.33
2018-09-10T17:19:34.562Z,99932.19
2018-09-10T17:22:03.575Z,99940.42
2018-09-10T17:24:34.537Z,99937.45
2018-09-10T17:27:09.731Z,99940.97
2018-09-10T17:29:38.645Z,99957.44
2018-09-10T17:32:07.932Z,99950.74
2018-09-10T17:34:37.097Z,99952.41
2018-09-10T17:37:07.484Z,99946.73
2018-09-10T17:39:36.005Z,99947.03
2018-09-10T17:42:04.573Z,99952.36
2018-09-10T17:44:33.517Z,99960.02
2018-09-10T17:47:02.151Z,99963.02
2018-09-10T17:49:30.627Z,99958.59
2018-09-10T17:51:59.185Z,99957.53
2018-09-10T17:54:27.704Z,99964.20
2018-09-10T17:56:56.256Z,99965.14
2018-09-10T17:59:24.861Z,99968.61
2018-09-10T18:01:59.052Z,99972.88
2018-09-10T18:04:27.561Z,99964.95
2018-09-10T18:06:56.129Z,99972.25
2018-09-10T18:09:24.709Z,99966.48
2018-09-10T18:11:53.261Z,99968.25
2018-09-10T18:14:21.817Z,99969.97
2018-09-10T18:16:50.364Z,99970.23
2018-09-10T18:19:19.518Z,99973.86
2018-09-10T18:21:48.121Z,99976.83
2018-09-10T18:24:16.661Z,99976.09
2018-09-10T18:26:46.291Z,99974.22
2018-09-10T18:29:15.363Z,99970.81
2018-09-10T18:31:43.901Z,99983.40
2018-09-10T18:34:13.022Z,99990.79
2018-09-10T18:36:44.232Z,99997.56
2018-09-10T18:39:12.960Z,99996.41
2018-09-10T18:41:42.163Z,100001.07
2018-09-10T18:44:10.709Z,99998.14
2018-09-10T18:46:39.416Z,100000.52
2018-09-10T18:49:08.046Z,100004.84
2018-09-10T18:51:36.593Z,100003.48
2018-09-10T18:54:05.173Z,100005.48
2018-09-10T18:56:33.702Z,100005.60
2018-09-10T18:59:02.281Z,100004.81
2018-09-10T19:01:32.707Z,100003.05
2018-09-10T19:04:02.433Z,100001.27
2018-09-10T19:06:31.293Z,100003.77
2018-09-10T19:08:59.871Z,100007.77
2018-09-10T19:11:39.476Z,100018.58
2018-09-10T19:14:08.196Z,100026.58
2018-09-10T19:16:37.363Z,100033.69
2018-09-10T19:19:05.937Z,100032.55
2018-09-10T19:21:34.532Z,100032.49
2018-09-10T19:24:03.123Z,100038.52
2018-09-10T19:26:31.916Z,100035.70
2018-09-10T19:29:03.528Z,100038.45
2018-09-10T19:31:54.403Z,100032.44
2018-09-10T19:34:23.213Z,100032.94
2018-09-10T19:36:52.710Z,100028.38
2018-09-10T19:39:22.716Z,100038.68
2018-09-10T19:41:51.569Z,100042.81
2018-09-10T19:44:22.564Z,100048.67
2018-09-10T19:46:52.067Z,100061.17
2018-09-10T19:49:20.674Z,100055.73
2018-09-10T19:51:49.668Z,100058.88
2018-09-10T19:54:20.239Z,100059.20
2018-09-10T19:56:50.174Z,100066.22
2018-09-10T19:59:18.863Z,100069.07
2018-09-10T20:01:47.529Z,100066.52
2018-09-10T20:04:17.451Z,100064.90
2018-09-10T20:06:46.021Z,100071.92
2018-09-10T20:09:15.368Z,100068.09
2018-09-10T20:11:44.067Z,100069.34
2018-09-10T20:14:12.625Z,100066.91
2018-09-10T20:16:41.205Z,100064.28
2018-09-10T20:19:09.789Z,100061.97
2018-09-10T20:21:38.413Z,100069.06
2018-09-10T20:24:06.583Z,100071.02
2018-09-10T20:26:35.149Z,100076.05
2018-09-10T20:29:03.777Z,100082.64
2018-09-10T20:31:32.304Z,100087.27
2018-09-10T20:34:08.059Z,100088.67
2018-09-10T20:36:37.620Z,100084.34
2018-09-10T20:39:09.612Z,100085.20
2018-09-10T20:41:38.169Z,100100.34
2018-09-10T20:44:06.932Z,100098.52
2018-09-10T20:46:35.529Z,100102.74
2018-09-10T20:49:09.429Z,100106.59
2018-09-10T20:51:38.182Z,100111.42
2018-09-10T20:54:06.873Z,100111.06
2018-09-10T20:56:35.522Z,100111.32
2018-09-10T20:59:04.106Z,100104.55
2018-09-10T21:01:32.680Z,100104.78
2018-09-10T21:04:01.284Z,100108.78
2018-09-10T21:06:29.891Z,100111.30
2018-09-10T21:09:00.501Z,100103.14
2018-09-10T21:11:31.853Z,100098.36
2018-09-10T21:14:04.005Z,100098.06
2018-09-10T21:16:38.228Z,100097.88
2018-09-10T21:19:08.392Z,100098.20
2018-09-10T21:21:40.123Z,100093.09
2018-09-10T21:24:12.124Z,100099.83
2018-09-10T21:26:41.828Z,100097.42
2018-09-10T21:29:13.473Z,100099.76
2018-09-10T21:31:49.168Z,100095.11
2018-09-10T21:34:22.831Z,100095.30
2018-09-10T21:36:52.202Z,100089.72
2018-09-10T21:39:22.655Z,100091.98
2018-09-10T21:41:56.033Z,100092.52
2018-09-10T21:44:27.322Z,100098.20
2018-09-10T21:46:59.704Z,100104.58
2018-09-10T21:49:31.843Z,100100.20
2018-09-10T21:52:06.584Z,100106.98
2018-09-10T21:54:35.877Z,100103.11
2018-09-10T21:57:06.009Z,100107.38
2018-09-10T21:59:36.665Z,100100.09
2018-09-10T22:02:09.600Z,100103.99
2018-09-10T22:04:40.213Z,100100.16
2018-09-10T22:07:10.847Z,100097.73
2018-09-10T22:09:40.080Z,100094.58
2018-09-10T22:12:10.421Z,100099.92
2018-09-10T22:14:40.629Z,100103.25
2018-09-10T22:17:09.431Z,100102.88
2018-09-10T22:19:42.565Z,100104.80
2018-09-10T22:22:11.297Z,100099.64
2018-09-10T22:24:40.194Z,100103.14
2018-09-10T22:27:10.823Z,100098.95
2018-09-10T22:29:45.454Z,100099.30
2018-09-10T22:32:17.293Z,100095.54
2018-09-10T22:34:49.755Z,100100.29
2018-09-10T22:37:21.643Z,100101.22
2018-09-10T22:39:53.592Z,100094.67
2018-09-10T22:42:23.327Z,100104.28
2018-09-10T22:44:54.107Z,100100.22
2018-09-10T22:47:27.010Z,100103.13
2018-09-10T22:50:00.221Z,100098.99
2018-09-10T22:52:32.205Z,100098.37
2018-09-10T22:55:04.605Z,100101.09
2018-09-10T22:57:37.145Z,100101.68
2018-09-10T23:00:08.370Z,100090.02
2018-09-10T23:02:41.424Z,100092.30
2018-09-10T23:05:13.740Z,100088.95
2018-09-10T23:07:44.240Z,100088.22
2018-09-10T23:10:15.013Z,100089.08
2018-09-10T23:12:43.776Z,100095.13
2018-09-10T23:15:12.312Z,100094.81
2018-09-10T23:17:41.243Z,100097.17
2018-09-10T23:20:09.778Z,100096.36
2018-09-10T23:22:38.338Z,100095.63
2018-09-10T23:25:06.909Z,100098.71
2018-09-10T23:27:35.473Z,100101.90
2018-09-10T23:30:04.276Z,100104.53
2018-09-10T23:32:32.840Z,100106.41
2018-09-10T23:35:01.689Z,100109.48
2018-09-10T23:37:30.557Z,100110.81
2018-09-10T23:39:59.105Z,100111.99
2018-09-10T23:42:27.657Z,100107.94
2018-09-10T23:44:56.177Z,100105.13
2018-09-10T23:47:24.778Z,100104.94
2018-09-10T23:49:53.336Z,100107.03
2018-09-10T23:52:21.887Z,100096.50
2018-09-10T23:54:50.413Z,100098.85
2018-09-10T23:57:18.975Z,100100.27
2018-09-10T23:59:47.520Z,100107.03
